• Join FlightAware (Why Join?)
  • Login
  • US Flag 
11:40PM EDT


 

Airport Tracker/Info


-or-


 

Live Flight TrackerFlight Track Log ✈ B-18725 ✈ 30-Apr-2013 ✈ PANC - KJFK

Flight Track Log - Related Links

Times and Time Zones

All times are in EDT time to prevent confusion due to time zone crossing. See the B-18725 flight status page for this flight to view local times or setup timezone preferences in your user account.

Time Position Orientation Groundspeed Altitude Reporting Facility
EDT Latitude Longitude Course Direction KTS MPH feet Rate Location/Type
01:17AM 61.2010 -150.0150 345° North 165 190 800  Level FlightAware
01:18AM 61.2190 -150.0330 334° Northwest 174 200 1,500 1,260 Climbing FlightAware
01:18AM 61.2390 -150.0690 319° Northwest 202 232 2,000 900 Climbing FlightAware
01:18AM 61.2500 -150.0870 322° Northwest 217 250 2,200 1,020 Climbing FlightAware
01:19AM 61.2720 -150.1220 323° Northwest 245 282 2,700 1,200 Climbing FlightAware
01:19AM 61.3000 -150.1710 320° Northwest 276 318 3,300 1,740 Climbing FlightAware
01:20AM 61.3260 -150.2110 324° Northwest 287 330 4,300 2,820 Climbing FlightAware
01:20AM 61.3450 -150.2240 342° North 286 329 5,200 2,700 Climbing FlightAware
01:20AM 61.3760 -150.2080 14° North 293 337 6,100 2,400 Climbing FlightAware
01:21AM 61.3930 -150.1670 49° Northeast 288 331 7,000 2,520 Climbing FlightAware
01:21AM 61.3970 -150.1100 82° East 291 335 7,800 2,640 Climbing FlightAware
01:22AM 61.3920 -150.0360 98° East 287 330 9,200 2,400 Climbing FlightAware
01:22AM 61.3820 -149.9010 99° East 310 357 10,800 1,500 Climbing FlightAware
01:23AM 61.3690 -149.7610 101° East 355 409 11,500 1,080 Climbing FlightAware
01:24AM 61.3510 -149.6210 105° East 391 450 12,400 2,040 Climbing FlightAware
01:25AM 61.3090 -149.3180 106° East 422 486 15,800 2,460 Climbing FlightAware
01:26AM 61.2860 -149.1570 106° East 437 503 17,600 2,220 Climbing FlightAware
01:27AM 61.2510 -148.9190 107° East 465 535 19,400 1,920 Climbing FlightAware
01:27AM 61.2280 -148.7550 106° East 484 557 20,700 2,040 Climbing FlightAware
01:28AM 61.1940 -148.5300 107° East 507 583 22,300 2,040 Climbing FlightAware
01:29AM 61.1630 -148.3190 107° East 522 601 23,800 1,920 Climbing FlightAware
01:29AM 61.1420 -148.1780 107° East 532 612 24,700 1,200 Climbing FlightAware
01:30AM 61.1080 -147.9520 107° East 538 619 25,400 1,020 Climbing FlightAware
01:31AM 61.0780 -147.7490 107° East 538 619 26,300 2,160 Climbing FlightAware
01:32AM 61.0430 -147.5320 108° East 562 647 28,300 1,380 Climbing FlightAware
01:32AM 61.0120 -147.3230 107° East 562 647 28,300  Level FlightAware
01:33AM 60.9860 -147.1490 107° East 562 647 28,300  Level FlightAware
01:34AM 60.9600 -146.9740 107° East 562 647 28,300  Level FlightAware
01:35AM 60.9280 -146.7570 107° East 562 647 28,300  Level FlightAware
01:35AM 60.9020 -146.5830 107° East 562 647 28,300 4,020 Level FlightAware
01:36AM 60.8000 -146.1000 107° East 570 656 35,000 3,300 Climbing Anchorage Center
01:37AM 60.7667 -145.8500 105° East 580 667 35,000  Level Anchorage Center
01:38AM 60.7000 -145.5333 113° Southeast 570 656 35,000  Level Anchorage Center
01:39AM 60.6500 -145.2333 109° East 560 644 35,000  Level Anchorage Center
01:40AM 60.6000 -144.9333 109° East 570 656 35,000  Level Anchorage Center
01:41AM 60.5333 -144.6167 113° Southeast 570 656 35,000  Level Anchorage Center
01:42AM 60.4833 -144.3167 109° East 570 656 35,000  Level Anchorage Center
01:43AM 60.4333 -144.0167 109° East 580 667 35,000  Level Anchorage Center
01:44AM 60.3667 -143.7000 113° Southeast 570 656 35,000  Level Anchorage Center
01:45AM 60.3167 -143.4000 108° East 580 667 35,000  Level Anchorage Center
01:46AM 60.2500 -143.1000 114° Southeast 580 667 35,000  Level Anchorage Center
01:47AM 60.1833 -142.7833 113° Southeast 580 667 35,000  Level Anchorage Center
01:48AM 60.1333 -142.4833 108° East 570 656 35,000  Level Anchorage Center
01:49AM 60.0667 -142.1833 114° Southeast 580 667 35,000  Level Anchorage Center
01:50AM 60.0000 -141.8833 114° Southeast 580 667 35,000  Level Anchorage Center
01:51AM 59.9333 -141.5833 114° Southeast 580 667 35,000  Level Anchorage Center
01:52AM 59.8833 -141.2833 108° East 580 667 35,000  Level Anchorage Center
01:53AM 59.8167 -141.0000 115° Southeast 580 667 35,000  Level Anchorage Center
01:54AM 59.7500 -140.7000 114° Southeast 590 679 35,000  Level Anchorage Center
01:55AM 59.6833 -140.4000 114° Southeast 590 679 35,000  Level Anchorage Center
01:56AM 59.6167 -140.1000 114° Southeast 590 679 35,000  Level Anchorage Center
01:57AM 59.5333 -139.8000 119° Southeast 610 702 35,000  Level Anchorage Center
01:58AM 59.4833 -139.5167 109° East 590 679 35,000  Level Anchorage Center
01:59AM 59.4500 -139.1500 100° East 600 690 35,000  Level Anchorage Center
02:00AM 59.4167 -138.8167 101° East 610 702 35,000  Level Anchorage Center
02:01AM 59.3667 -138.5000 107° East 600 690 35,000  Level Anchorage Center
02:02AM 59.3333 -138.1833 102° East 610 702 35,000  Level Anchorage Center
02:03AM 59.3000 -137.8667 102° East 600 690 35,000  Level Anchorage Center
02:04AM 59.2500 -137.5333 106° East 600 690 35,000  Level Anchorage Center
02:05AM 59.2167 -137.2333 102° East 600 690 35,000  Level Anchorage Center
02:07AM 59.1333 -136.5833 104° East 610 702 35,000  Level Anchorage Center
02:08AM 59.0833 -136.2667 107° East 610 702 35,000  Level Anchorage Center
02:09AM 59.0333 -135.9667 108° East 600 690 35,000  Level Anchorage Center
02:10AM 59.0000 -135.6500 101° East 600 690 35,000  Level Anchorage Center
02:11AM 58.9500 -135.3333 107° East 610 702 35,000  Level Anchorage Center
02:12AM 58.9000 -135.0167 107° East 610 702 35,000  Level Anchorage Center
02:13AM 58.8500 -134.7000 107° East 610 702 35,000  Level Anchorage Center
02:14AM 58.8000 -134.3833 107° East 610 702 35,000  Level Anchorage Center
02:16AM 58.7499 -134.0597 105° East  Level FlightAware Approximate
02:16AM 58.7000 -133.7667 105° East 620 713 35,000  Level Anchorage Center
02:18AM 58.6477 -133.4452 107° East  Level FlightAware Approximate
02:25AM 58.3359 -131.6391 108° East  Level FlightAware Approximate
02:26AM 58.2885 -131.3841 110° East  Level FlightAware Approximate
02:27AM 58.2401 -131.1303 110° East  Level FlightAware Approximate
02:28AM 58.1912 -130.8772 110° East  Level FlightAware Approximate
02:29AM 58.1418 -130.6248 110° East  Level FlightAware Approximate
02:30AM 58.1060 -130.3651 105° East  Level FlightAware Approximate
02:31AM 58.0696 -130.1058 105° East  Level FlightAware Approximate
02:32AM 58.0328 -129.8471 105° East  Level FlightAware Approximate
02:33AM 57.9954 -129.5889 105° East  Level FlightAware Approximate
02:34AM 57.9575 -129.3312 105° East  Level FlightAware Approximate
02:35AM 57.9191 -129.0741 106° East  Level FlightAware Approximate
02:36AM 57.8802 -128.8176 106° East  Level FlightAware Approximate
02:37AM 57.8407 -128.5616 106° East  Level FlightAware Approximate
02:38AM 57.8008 -128.3061 106° East  Level FlightAware Approximate
02:39AM 57.7603 -128.0513 106° East  Level FlightAware Approximate
02:40AM 57.7193 -127.7970 107° East  Level FlightAware Approximate
02:41AM 57.6778 -127.5433 107° East  Level FlightAware Approximate
02:42AM 57.6358 -127.2901 107° East  Level FlightAware Approximate
02:43AM 57.5933 -127.0376 107° East  Level FlightAware Approximate
02:44AM 57.5503 -126.7857 108° East  Level FlightAware Approximate
02:45AM 57.5068 -126.5343 108° East  Level FlightAware Approximate
02:46AM 57.4600 -126.2836 110° East  Level FlightAware Approximate
02:46AM 56.9167 -125.1833 111° Southeast 610 702 35,000  Level Edmonton Center
02:47AM 57.4102 -126.0369 110° East  Level FlightAware Approximate
02:47AM 56.8333 -124.9167 120° Southeast 590 679 35,000  Level Edmonton Center
02:48AM 57.3599 -125.7910 111° Southeast  Level FlightAware Approximate
02:48AM 56.7500 -124.6500 120° Southeast 590 679 35,000  Level Edmonton Center
02:49AM 57.3092 -125.5457 111° Southeast  Level FlightAware Approximate
02:49AM 56.7000 -124.3500 107° East 590 679 35,000  Level Edmonton Center
02:50AM 57.2579 -125.3011 111° Southeast  Level FlightAware Approximate
02:50AM 56.6167 -124.1000 121° Southeast 580 667 35,000  Level Edmonton Center
02:51AM 57.2062 -125.0572 111° Southeast  Level FlightAware Approximate
02:51AM 56.5500 -123.8333 114° Southeast 580 667 35,000  Level Edmonton Center
02:52AM 56.4667 -123.5667 119° Southeast 580 667 35,000  Level Edmonton Center
02:53AM 56.4167 -123.2833 108° East 570 656 35,000  Level Edmonton Center
02:54AM 56.3500 -123.0667 119° Southeast 570 656 35,000  Level Edmonton Center
02:55AM 56.2833 -122.8167 116° Southeast 560 644 35,000  Level Edmonton Center
02:56AM 56.2000 -122.5500 119° Southeast 560 644 35,000  Level Edmonton Center
02:57AM 56.1333 -122.3000 115° Southeast 560 644 35,000  Level Edmonton Center
02:58AM 56.0667 -122.0500 115° Southeast 560 644 35,000  Level Edmonton Center
02:59AM 55.9833 -121.8000 121° Southeast 560 644 35,000  Level Edmonton Center
03:00AM 55.9167 -121.5500 115° Southeast 560 644 35,000  Level Edmonton Center
03:01AM 55.8333 -121.3000 121° Southeast 560 644 35,000  Level Edmonton Center
03:02AM 55.7667 -121.0500 115° Southeast 560 644 35,000  Level Edmonton Center
03:03AM 55.7000 -120.8000 115° Southeast 560 644 35,000  Level Edmonton Center
03:04AM 55.6167 -120.5667 122° Southeast 560 644 35,000  Level Edmonton Center
03:05AM 55.5500 -120.3167 115° Southeast 550 633 35,000  Level Edmonton Center
03:06AM 55.5333 -120.0667 97° East 540 621 35,000  Level Edmonton Center
03:07AM 55.5167 -119.8167 97° East 530 610 35,000  Level Edmonton Center
03:08AM 55.5000 -119.5333 96° East 530 610 35,000  Level Edmonton Center
03:09AM 55.4667 -119.2833 103° East 520 598 35,000  Level Edmonton Center
03:10AM 55.4500 -119.0000 96° East 520 598 35,000  Level Edmonton Center
03:11AM 55.4333 -118.7667 97° East 520 598 35,000  Level Edmonton Center
03:12AM 55.4167 -118.5167 97° East 520 598 35,000  Level Edmonton Center
03:13AM 55.3833 -118.2500 102° East 520 598 35,000  Level Edmonton Center
03:14AM 55.3667 -118.0000 97° East 520 598 35,000  Level Edmonton Center
03:15AM 55.3167 -117.7333 108° East 520 598 35,000  Level Edmonton Center
03:16AM 55.3000 -117.4833 97° East 520 598 35,000  Level Edmonton Center
03:17AM 55.2667 -117.2333 103° East 520 598 35,000  Level Edmonton Center
03:18AM 55.2500 -116.9833 97° East 520 598 35,000  Level Edmonton Center
03:23AM 55.1260 -115.6770 97° East 517 595 35,000  Level FlightAware
03:24AM 55.1080 -115.5130 101° East 517 595 35,000  Level FlightAware
03:24AM 55.0830 -115.3290 103° East 518 596 35,000  Level FlightAware
03:25AM 55.0610 -115.1550 102° East 518 596 35,000  Level FlightAware
03:26AM 55.0210 -114.8500 103° East 515 593 35,000  Level FlightAware
03:27AM 55.0010 -114.6880 102° East 515 593 35,000  Level FlightAware
03:28AM 54.9760 -114.5060 103° East 512 589 35,000  Level FlightAware
03:28AM 54.9570 -114.3610 103° East 513 590 35,000  Level FlightAware
03:29AM 54.9310 -114.1700 103° East 512 589 35,000  Level FlightAware
03:30AM 54.9000 -113.9420 103° East 513 590 35,000  Level FlightAware
03:31AM 54.8810 -113.8060 104° East 513 590 35,000  Level FlightAware
03:32AM 54.8410 -113.5260 104° East 511 588 35,000  Level FlightAware
03:33AM 54.7960 -113.2090 104° East 510 587 35,000  Level FlightAware
03:34AM 54.7730 -113.0530 104° East 509 586 35,000  Level FlightAware
03:34AM 54.7510 -112.9030 104° East 511 588 35,000  Level FlightAware
03:35AM 54.7160 -112.6660 104° East 510 587 35,000  Level FlightAware
03:36AM 54.6830 -112.4560 105° East 508 585 35,000  Level FlightAware
03:37AM 54.6550 -112.2710 105° East 510 587 35,000  Level FlightAware
03:38AM 54.6370 -112.1520 105° East 509 586 35,000  Level FlightAware
03:38AM 54.6100 -111.9650 104° East 509 586 35,000  Level FlightAware
03:39AM 54.5790 -111.7820 106° East 506 582 35,000  Level FlightAware
03:40AM 54.5580 -111.6500 105° East 506 582 35,000  Level FlightAware
03:41AM 54.5330 -111.4840 104° East 506 582 35,000  Level FlightAware
03:41AM 54.5120 -111.3510 105° East 506 582 35,000  Level FlightAware
03:42AM 54.4910 -111.2190 105° East 506 582 35,000  Level FlightAware
03:43AM 54.4710 -111.0870 105° East 506 582 35,000  Level FlightAware
03:43AM 54.4500 -110.9540 105° East 506 582 35,000  Level FlightAware
03:44AM 54.4240 -110.7890 105° East 506 582 35,000  Level FlightAware
03:45AM 54.4040 -110.6570 105° East 506 582 35,000  Level FlightAware
03:46AM 54.3830 -110.5250 105° East 506 582 35,000  Level FlightAware
03:46AM 54.3620 -110.3930 105° East 506 582 35,000  Level FlightAware
03:47AM 54.3420 -110.2610 105° East 506 582 35,000  Level FlightAware
03:48AM 54.3210 -110.1290 105° East 506 582 35,000  Level FlightAware
03:48AM 54.2950 -109.9650 105° East 506 582 35,000  Level FlightAware
03:50AM 54.1500 -109.3833 105° East 490 564 35,000  Level Edmonton Center
03:51AM 54.1000 -109.1500 110° East 490 564 35,000  Level Edmonton Center
03:52AM 54.0667 -108.9167 104° East 490 564 35,000  Level Edmonton Center
03:53AM 54.0167 -108.7167 113° Southeast 490 564 35,000  Level Edmonton Center
03:54AM 53.9667 -108.4667 109° East 490 564 35,000  Level Edmonton Center
03:55AM 53.9333 -108.2667 106° East 490 564 35,000  Level Edmonton Center
03:56AM 53.9000 -108.0333 104° East 480 552 35,000  Level Edmonton Center
03:57AM 53.8500 -107.8000 110° East 490 564 35,000  Level Edmonton Center
03:58AM 53.8167 -107.6000 106° East 490 564 35,000  Level Edmonton Center
03:59AM 53.7667 -107.3667 110° East 490 564 35,000  Level Edmonton Center
04:00AM 53.7167 -107.1667 113° Southeast 490 564 35,000  Level Edmonton Center
04:01AM 53.6667 -106.9333 110° East 490 564 35,000  Level Edmonton Center
04:02AM 53.6167 -106.7000 110° East 490 564 35,000  Level Edmonton Center
04:03AM 53.5833 -106.5000 106° East 490 564 35,000  Level Edmonton Center
04:04AM 53.5333 -106.2667 110° East 490 564 35,000  Level Edmonton Center
04:05AM 53.4833 -106.0500 111° Southeast 490 564 35,000  Level Edmonton Center
04:06AM 53.4500 -105.8500 106° East 490 564 35,000  Level Edmonton Center
04:07AM 53.4000 -105.6167 110° East 490 564 35,000  Level Edmonton Center
04:08AM 53.3500 -105.4167 113° Southeast 480 552 35,000  Level Edmonton Center
04:09AM 53.3000 -105.1833 110° East 490 564 35,000  Level Edmonton Center
04:10AM 53.2500 -104.9667 111° Southeast 490 564 35,000  Level Edmonton Center
04:11AM 53.2000 -104.7667 113° Southeast 490 564 35,000  Level Edmonton Center
04:12AM 53.1500 -104.5333 110° East 490 564 35,000  Level Edmonton Center
04:13AM 53.1000 -104.3500 114° Southeast 490 564 35,000  Level Edmonton Center
04:18AM 52.8370 -103.1570 114° Southeast 489 563 35,000  Level FlightAware
04:19AM 52.8040 -103.0210 112° Southeast 489 563 35,000  Level FlightAware
04:20AM 52.7650 -102.8680 113° Southeast 488 562 35,000  Level FlightAware
04:21AM 52.7210 -102.6900 112° Southeast 488 562 35,000  Level FlightAware
04:21AM 52.6930 -102.5730 112° Southeast 488 562 35,000  Level FlightAware
04:22AM 52.6640 -102.4550 112° Southeast 488 562 35,000  Level FlightAware
04:23AM 52.6280 -102.3090 112° Southeast 488 562 35,000  Level FlightAware
04:23AM 52.5740 -102.1180 115° Southeast 491 565 35,000  Level FlightAware
04:24AM 52.5260 -101.9320 113° Southeast 491 565 35,000  Level FlightAware
04:25AM 52.4960 -101.8150 113° Southeast 491 565 35,000  Level FlightAware
04:26AM 52.4650 -101.6990 114° Southeast 491 565 35,000  Level FlightAware
04:26AM 52.4280 -101.5530 113° Southeast 491 565 35,000  Level FlightAware
04:27AM 52.3970 -101.4360 113° Southeast 491 565 35,000  Level FlightAware
04:28AM 52.3670 -101.3200 113° Southeast 491 565 35,000  Level FlightAware
04:29AM 52.3290 -101.1740 113° Southeast 491 565 35,000  Level FlightAware
04:29AM 52.2990 -101.0580 113° Southeast 491 565 35,000  Level FlightAware
04:30AM 52.2690 -100.9420 113° Southeast 491 565 35,000  Level FlightAware
04:31AM 52.2390 -100.8260 113° Southeast 491 565 35,000  Level FlightAware
04:31AM 52.2090 -100.7100 113° Southeast 491 565 35,000  Level FlightAware
04:32AM 52.1790 -100.5940 113° Southeast 491 565 35,000  Level FlightAware
04:33AM 52.1410 -100.4490 113° Southeast 491 565 35,000  Level FlightAware
04:33AM 52.1110 -100.3330 113° Southeast 491 565 35,000  Level FlightAware
04:35AM 51.9333 -99.8167 113° Southeast 490 564 35,000  Level Edmonton Center
04:36AM 51.8667 -99.6000 116° Southeast 490 564 35,000  Level Edmonton Center
04:37AM 51.8000 -99.3833 116° Southeast 490 564 35,000  Level Edmonton Center
04:38AM 51.7500 -99.1833 112° Southeast 500 575 35,000  Level Edmonton Center
04:39AM 51.6833 -99.0000 120° Southeast 490 564 35,000  Level Edmonton Center
04:40AM 51.6167 -98.7833 116° Southeast 490 564 35,000  Level Edmonton Center
04:41AM 51.5500 -98.5833 118° Southeast 490 564 35,000  Level Edmonton Center
04:42AM 51.5167 -98.4000 106° East 490 564 35,000  Level Edmonton Center
04:43AM 51.4500 -98.1833 116° Southeast 490 564 35,000  Level Edmonton Center
04:44AM 51.3833 -97.9833 118° Southeast 490 564 35,000  Level Edmonton Center
04:45AM 51.3167 -97.7667 116° Southeast 490 564 35,000  Level Edmonton Center
04:46AM 51.2667 -97.6000 116° Southeast 490 564 35,000  Level Edmonton Center
04:47AM 51.2000 -97.3833 116° Southeast 490 564 35,000  Level Edmonton Center
04:48AM 51.1333 -97.1833 118° Southeast 490 564 35,000  Level Edmonton Center
04:49AM 51.0667 -97.0000 120° Southeast 490 564 35,000  Level Edmonton Center
04:50AM 51.0000 -96.8000 118° Southeast 500 575 35,000  Level Edmonton Center
04:51AM 50.9500 -96.6000 112° Southeast 500 575 35,000  Level Edmonton Center
04:52AM 50.8833 -96.4000 118° Southeast 500 575 35,000  Level Edmonton Center
04:53AM 50.8167 -96.2167 120° Southeast 500 575 35,000  Level Edmonton Center
04:54AM 50.7500 -96.0167 118° Southeast 500 575 35,000  Level Edmonton Center
04:55AM 50.6833 -95.8167 118° Southeast 510 587 35,000  Level Edmonton Center
04:56AM 50.6167 -95.6167 118° Southeast 510 587 35,000  Level Edmonton Center
04:57AM 50.5500 -95.4167 118° Southeast 510 587 35,000  Level Edmonton Center
04:58AM 50.4833 -95.2500 122° Southeast 510 587 35,000  Level Edmonton Center
04:59AM 50.4333 -95.0500 111° Southeast 510 587 35,000  Level Winnipeg Center
05:00AM 50.3667 -94.8667 120° Southeast 510 587 35,000  Level Winnipeg Center
05:01AM 50.2833 -94.6667 123° Southeast 520 598 35,000  Level Winnipeg Center
05:02AM 50.2167 -94.4833 120° Southeast 520 598 35,000  Level Winnipeg Center
05:03AM 50.1500 -94.2833 117° Southeast 520 598 35,000  Level Winnipeg Center
05:04AM 50.0833 -94.0667 116° Southeast 520 598 35,000  Level Winnipeg Center
05:05AM 50.0000 -93.8667 123° Southeast 520 598 35,000  Level Winnipeg Center
05:06AM 49.9333 -93.6833 119° Southeast 520 598 35,000  Level Winnipeg Center
05:07AM 49.8667 -93.4833 117° Southeast 510 587 35,000 240 Level Winnipeg Center
05:13AM 49.4580 -92.3860 117° Southeast 510 587 37,000 300 Climbing FlightAware
05:13AM 49.4220 -92.2900 120° Southeast 510 587 37,000  Level FlightAware
05:14AM 49.3500 -92.1070 121° Southeast 504 580 37,000  Level FlightAware
05:15AM 49.3050 -91.9930 121° Southeast 497 572 37,000  Level FlightAware
05:15AM 49.2560 -91.8660 121° Southeast 494 568 37,000  Level FlightAware
05:16AM 49.2090 -91.7480 121° Southeast 493 567 37,000  Level FlightAware
05:17AM 49.1620 -91.6290 121° Southeast 491 565 37,000  Level FlightAware
05:18AM 49.1090 -91.4970 121° Southeast 490 564 37,000  Level FlightAware
05:18AM 49.0600 -91.3740 121° Southeast 490 564 37,000  Level FlightAware
05:19AM 49.0080 -91.2440 121° Southeast 492 566 37,000  Level FlightAware
05:20AM 48.9530 -91.1100 122° Southeast 494 568 37,000  Level FlightAware
05:20AM 48.9050 -90.9910 122° Southeast 494 568 37,000  Level FlightAware
05:21AM 48.8570 -90.8720 121° Southeast 496 571 37,000  Level FlightAware
05:22AM 48.8060 -90.7470 122° Southeast 494 568 37,000  Level FlightAware
05:22AM 48.7580 -90.6320 122° Southeast 492 566 37,000  Level FlightAware
05:23AM 48.7030 -90.5000 122° Southeast 493 567 37,000  Level FlightAware
05:24AM 48.6560 -90.3860 122° Southeast 493 567 37,000  Level FlightAware
05:25AM 48.6040 -90.2610 122° Southeast 495 570 37,000  Level FlightAware
05:25AM 48.5490 -90.1290 122° Southeast 499 574 37,000  Level FlightAware
05:26AM 48.4980 -90.0090 123° Southeast 502 578 37,000  Level FlightAware
05:27AM 48.4490 -89.8930 122° Southeast 504 580 37,000  Level FlightAware
05:27AM 48.3940 -89.7630 122° Southeast 504 580 37,000  Level FlightAware
05:28AM 48.3430 -89.6440 123° Southeast 502 578 37,000  Level FlightAware
05:29AM 48.2870 -89.5130 123° Southeast 504 580 37,000  Level FlightAware
05:29AM 48.2430 -89.4030 121° Southeast 511 588 37,000  Level FlightAware
05:30AM 48.2000 -89.2730 116° Southeast 516 594 37,000  Level FlightAware
05:31AM 48.1640 -89.1640 116° Southeast 516 594 37,000  Level FlightAware
05:32AM 48.0980 -88.9580 116° Southeast 515 593 37,000  Level FlightAware
05:32AM 48.0620 -88.8490 116° Southeast 515 593 37,000  Level FlightAware
05:33AM 48.0260 -88.7410 116° Southeast 515 593 37,000  Level FlightAware
05:34AM 47.9910 -88.6320 116° Southeast 515 593 37,000  Level FlightAware
05:35AM 47.9150 -88.4130 117° Southeast 512 589 37,000  Level FlightAware
05:35AM 47.8800 -88.3060 116° Southeast 512 589 37,000  Level FlightAware
05:36AM 47.8450 -88.1980 116° Southeast 512 589 37,000  Level FlightAware
05:37AM 47.8090 -88.0900 116° Southeast 512 589 37,000  Level FlightAware
05:37AM 47.7420 -87.9090 119° Southeast 505 581 37,000  Level FlightAware
05:38AM 47.7000 -87.7880 117° Southeast 505 581 37,000  Level FlightAware
05:39AM 47.6490 -87.6410 117° Southeast 507 583 37,000  Level FlightAware
05:39AM 47.6130 -87.5350 117° Southeast 507 583 37,000  Level FlightAware
05:40AM 47.5770 -87.4300 117° Southeast 507 583 37,000  Level FlightAware
05:41AM 47.5400 -87.3250 118° Southeast 507 583 37,000  Level FlightAware
05:42AM 47.4950 -87.1930 117° Southeast 507 583 37,000  Level FlightAware
05:42AM 47.4590 -87.0880 117° Southeast 507 583 37,000  Level FlightAware
05:43AM 47.4230 -86.9830 117° Southeast 507 583 37,000  Level FlightAware
05:44AM 47.3860 -86.8780 117° Southeast 507 583 37,000  Level FlightAware
05:44AM 47.2750 -86.5910 120° Southeast 506 582 37,000  Level FlightAware
05:45AM 47.2310 -86.4700 118° Southeast 506 582 37,000  Level FlightAware
05:46AM 47.1870 -86.3510 119° Southeast 506 582 37,000  Level FlightAware
05:47AM 47.1370 -86.2140 118° Southeast 506 582 37,000  Level FlightAware
05:47AM 47.0920 -86.0910 118° Southeast 506 582 37,000  Level FlightAware
05:48AM 47.0430 -85.9590 119° Southeast 507 583 37,000  Level FlightAware
05:49AM 46.9980 -85.8390 119° Southeast 507 583 37,000  Level FlightAware
05:49AM 46.9530 -85.7180 119° Southeast 509 586 37,000  Level FlightAware
05:50AM 46.9000 -85.5790 119° Southeast 512 589 37,000  Level FlightAware
05:51AM 46.8570 -85.4640 119° Southeast 512 589 37,000  Level FlightAware
05:51AM 46.8100 -85.3410 119° Southeast 511 588 37,000  Level FlightAware
05:52AM 46.7570 -85.2020 119° Southeast 508 585 37,000  Level FlightAware
05:53AM 46.7120 -85.0840 119° Southeast 507 583 37,000  Level FlightAware
05:54AM 46.6620 -84.9530 119° Southeast 504 580 37,000  Level FlightAware
05:54AM 46.6160 -84.8340 119° Southeast 500 575 37,000  Level FlightAware
05:55AM 46.5710 -84.7200 120° Southeast 498 573 37,000  Level FlightAware
05:56AM 46.5190 -84.5870 120° Southeast 495 570 37,000  Level FlightAware
05:56AM 46.4730 -84.4700 120° Southeast 494 568 37,000  Level FlightAware
05:57AM 46.4240 -84.3460 120° Southeast 492 566 37,000  Level FlightAware
05:58AM 46.3700 -84.2380 126° Southeast 490 564 37,000  Level FlightAware
05:58AM 46.3180 -84.1290 125° Southeast 490 564 37,000  Level FlightAware
05:59AM 46.2610 -84.0060 124° Southeast 488 562 37,000  Level FlightAware
06:00AM 46.2100 -83.9000 125° Southeast 485 558 37,000  Level FlightAware
06:00AM 46.1560 -83.7950 127° Southeast 481 554 37,000  Level FlightAware
06:01AM 46.1000 -83.6830 126° Southeast 487 560 37,000  Level FlightAware
06:02AM 46.0450 -83.5750 126° Southeast 491 565 37,000  Level FlightAware
06:03AM 45.9850 -83.4570 126° Southeast 496 571 37,000  Level FlightAware
06:03AM 45.9310 -83.3490 126° Southeast 496 571 37,000  Level FlightAware
06:04AM 45.8760 -83.2420 126° Southeast 495 570 37,000  Level FlightAware
06:05AM 45.8160 -83.1240 126° Southeast 494 568 37,000  Level FlightAware
06:05AM 45.7620 -83.0190 126° Southeast 494 568 37,000  Level FlightAware
06:06AM 45.7010 -82.9000 126° Southeast 495 570 37,000  Level FlightAware
06:07AM 45.6450 -82.7920 127° Southeast 493 567 37,000  Level FlightAware
06:07AM 45.5920 -82.6900 127° Southeast 492 566 37,000  Level FlightAware
06:08AM 45.5380 -82.5850 126° Southeast 489 563 37,000  Level FlightAware
06:09AM 45.4790 -82.4730 127° Southeast 488 562 37,000  Level FlightAware
06:10AM 45.4250 -82.3700 127° Southeast 488 562 37,000  Level FlightAware
06:10AM 45.3630 -82.2520 127° Southeast 487 560 37,000  Level FlightAware
06:11AM 45.3090 -82.1500 127° Southeast 488 562 37,000  Level FlightAware
06:12AM 45.2470 -82.0320 127° Southeast 490 564 37,000  Level FlightAware
06:12AM 45.1920 -81.9310 128° Southeast 492 566 37,000  Level FlightAware
06:13AM 45.1310 -81.8160 127° Southeast 495 570 37,000  Level FlightAware
06:14AM 45.0760 -81.7140 127° Southeast 498 573 37,000  Level FlightAware
06:14AM 45.0200 -81.6090 127° Southeast 498 573 37,000  Level FlightAware
06:15AM 44.9590 -81.4970 128° Southeast 500 575 37,000  Level FlightAware
06:16AM 44.8940 -81.3780 128° Southeast 500 575 37,000  Level FlightAware
06:17AM 44.8480 -81.2930 127° Southeast 500 575 37,000  Level FlightAware
06:18AM 44.7333 -81.0833 127° Southeast 500 575 37,000  Level Toronto Center
06:19AM 44.6333 -80.9500 136° Southeast 500 575 37,000  Level Toronto Center
06:20AM 44.5667 -80.8000 122° Southeast 500 575 37,000  Level Toronto Center
06:21AM 44.4667 -80.6667 136° Southeast 490 564 37,000  Level Toronto Center
06:22AM 44.3833 -80.5167 128° Southeast 490 564 37,000  Level Toronto Center
06:23AM 44.2833 -80.3833 136° Southeast 490 564 37,000  Level Toronto Center
06:24AM 44.2000 -80.2333 128° Southeast 490 564 37,000  Level Toronto Center
06:25AM 44.1000 -80.1000 136° Southeast 490 564 37,000  Level Toronto Center
06:26AM 44.0167 -79.9500 128° Southeast 490 564 37,000  Level Toronto Center
06:27AM 43.9500 -79.8000 122° Southeast 490 564 37,000  Level Toronto Center
06:28AM 43.8833 -79.6167 117° Southeast 490 564 37,000  Level Toronto Center
06:29AM 43.8167 -79.4500 119° Southeast 500 575 37,000  Level Toronto Center
06:30AM 43.7500 -79.2833 119° Southeast 490 564 37,000  Level Toronto Center
06:31AM 43.6833 -79.1333 122° Southeast 490 564 37,000  Level Toronto Center
06:32AM 43.6333 -78.9500 111° Southeast 490 564 37,000  Level Toronto Center
06:33AM 43.5667 -78.7833 119° Southeast 490 564 37,000  Level Toronto Center
06:34AM 43.5167 -78.6167 112° Southeast 490 564 37,000  Level Toronto Center
06:35AM 43.4333 -78.4333 122° Southeast 490 564 37,000  Level Toronto Center
06:36AM 43.3833 -78.2833 115° Southeast 490 564 37,000  Level Toronto Center
06:37AM 43.3456 -78.1511 111° Southeast 485 558 37,000  Level Cleveland Center
06:38AM 43.2856 -77.9822 116° Southeast 485 558 37,000  Level Cleveland Center
06:39AM 43.2253 -77.8167 117° Southeast 485 558 37,000  Level Cleveland Center
06:40AM 43.1650 -77.6486 116° Southeast 485 558 37,000  Level Cleveland Center
06:41AM 43.1044 -77.4836 117° Southeast 485 558 37,000  Level Cleveland Center
06:43AM 42.9667 -77.1000 116° Southeast 490 564 37,000  Level Toronto Center
06:44AM 42.9000 -76.9500 121° Southeast 490 564 37,000  Level Toronto Center
06:45AM 42.8614 -76.8369 115° Southeast 470 541 37,000  Level Boston Center
06:46AM 42.7989 -76.6711 117° Southeast 484 557 37,000  Level Boston Center
06:47AM 42.7383 -76.5086 117° Southeast 484 557 37,000  Level Boston Center
06:48AM 42.6886 -76.3781 117° Southeast 479 551 37,000  Level Boston Center
06:53AM 42.3230 -75.4370 117° Southeast 484 557 37,000  Level FlightAware
06:54AM 42.2810 -75.3330 119° Southeast 483 556 37,000 -420 Level FlightAware
06:54AM 42.2381 -75.2245 118° Southeast 482 555 36,500 -2,160 Descending FlightAware ADS-B
06:55AM 42.1994 -75.1274 118° Southeast 482 555 34,300 -3,240 Descending FlightAware ADS-B
06:56AM 42.1608 -75.0313 118° Southeast 490 564 32,600 -2,580 Descending FlightAware ADS-B
06:56AM 42.1101 -74.9055 118° Southeast 484 557 30,800 -2,280 Descending FlightAware ADS-B
06:57AM 42.0788 -74.8281 119° Southeast 467 537 29,700 -2,100 Descending FlightAware ADS-B
06:58AM 42.0450 -74.7446 119° Southeast 456 525 28,600 -1,380 Descending FlightAware ADS-B
06:58AM 42.0010 -74.6359 119° Southeast 447 514 28,000 -480 Descending FlightAware ADS-B
06:59AM 41.9618 -74.5396 119° Southeast 458 527 28,000 -480 Level FlightAware ADS-B
07:00AM 41.9232 -74.4451 119° Southeast 454 522 27,400 -1,320 Descending FlightAware ADS-B
07:00AM 41.8864 -74.3696 123° Southeast 453 521 26,500 -1,560 Descending FlightAware ADS-B
07:01AM 41.8020 -74.2924 146° Southeast 462 532 25,300 -1,500 Descending FlightAware ADS-B
07:01AM 41.7423 -74.2589 157° South 458 527 24,500 -1,620 Descending FlightAware ADS-B
07:02AM 41.6831 -74.2269 158° South 450 518 23,700 -1,500 Descending FlightAware ADS-B
07:02AM 41.6237 -74.1947 158° South 444 511 23,000 -1,380 Descending FlightAware ADS-B
07:03AM 41.5977 -74.1804 158° South 447 514 22,700 -1,500 Descending FlightAware ADS-B
07:03AM 41.5628 -74.1611 158° South 432 497 22,200 -1,440 Descending FlightAware ADS-B
07:03AM 41.5056 -74.1295 158° South 426 490 21,500 -1,500 Descending FlightAware ADS-B
07:04AM 41.4494 -74.0989 158° South 419 482 20,700 -1,440 Descending FlightAware ADS-B
07:04AM 41.4375 -74.0938 162° South 417 480 20,600 -420 Descending FlightAware ADS-B
07:04AM 41.3946 -74.0834 170° South 417 480 20,500 -420 Descending FlightAware ADS-B
07:05AM 41.3733 -74.0824 178° South 418 481 20,400 -600 Descending FlightAware ADS-B
07:05AM 41.3519 -74.0841 183° South 418 481 20,300 -300 Descending FlightAware ADS-B
07:05AM 41.2942 -74.0907 185° South 419 482 20,200 -300 Descending FlightAware ADS-B
07:06AM 41.2210 -74.0998 185° South 417 480 20,000 -300 Descending FlightAware ADS-B
07:06AM 41.2058 -74.1017 185° South 417 480 20,000  Level FlightAware ADS-B
07:06AM 41.1622 -74.1070 185° South 418 481 20,000  Level FlightAware ADS-B
07:07AM 41.1449 -74.1090 185° South 418 481 20,000  Level FlightAware ADS-B
07:07AM 41.1035 -74.1138 185° South 418 481 20,000  Level FlightAware ADS-B
07:07AM 41.0870 -74.1157 185° South 418 481 20,000 -420 Level FlightAware ADS-B
07:08AM 41.0440 -74.1205 185° South 409 471 19,800 -600 Descending FlightAware ADS-B
07:08AM 41.0302 -74.1221 185° South 402 463 19,700 -1,020 Descending FlightAware ADS-B
07:08AM 40.9872 -74.1269 185° South 389 448 19,300 -1,020 Descending FlightAware ADS-B
07:08AM 40.9530 -74.1299 184° South 377 434 19,000 -780 Descending FlightAware ADS-B
07:08AM 40.9463 -74.1297 179° South 373 429 19,000  Level FlightAware ADS-B
07:09AM 40.9341 -74.1278 173° South 365 420 19,000  Level FlightAware ADS-B
07:09AM 40.9260 -74.1252 166° South 358 412 19,000  Level FlightAware ADS-B
07:09AM 40.9181 -74.1216 161° South 354 407 19,000  Level FlightAware ADS-B
07:09AM 40.9151 -74.1199 157° South 352 405 19,000  Level FlightAware ADS-B
07:09AM 40.9084 -74.1153 153° Southeast 347 399 19,000  Level FlightAware ADS-B
07:09AM 40.9034 -74.1112 148° Southeast 344 396 19,000 -780 Level FlightAware ADS-B
07:09AM 40.8980 -74.1058 143° Southeast 342 394 18,900 -1,020 Descending FlightAware ADS-B
07:09AM 40.8963 -74.1039 140° Southeast 342 394 18,900 -1,500 Level FlightAware ADS-B
07:09AM 40.8844 -74.0875 134° Southeast 338 389 18,600 -1,320 Descending FlightAware ADS-B
07:10AM 40.8644 -74.0549 129° Southeast 334 384 18,200 -1,440 Descending FlightAware ADS-B
07:10AM 40.8551 -74.0398 129° Southeast 332 382 17,900 -1,440 Descending FlightAware ADS-B
07:10AM 40.8354 -74.0078 129° Southeast 328 377 17,500 -1,380 Descending FlightAware ADS-B
07:10AM 40.8256 -73.9918 129° Southeast 326 375 17,200 -1,380 Descending FlightAware ADS-B
07:11AM 40.8063 -73.9600 129° Southeast 321 369 16,800 -1,140 Descending FlightAware ADS-B
07:11AM 40.7957 -73.9426 129° Southeast 319 367 16,600 -1,380 Descending FlightAware ADS-B
07:11AM 40.7661 -73.8937 129° Southeast 315 362 15,800 -1,440 Descending FlightAware ADS-B
07:12AM 40.7385 -73.8479 128° Southeast 310 357 15,100 -1,320 Descending FlightAware ADS-B
07:12AM 40.7119 -73.8038 129° Southeast 305 351 14,500 -1,320 Descending FlightAware ADS-B
07:13AM 40.6832 -73.7558 128° Southeast 301 346 13,700 -1,500 Descending FlightAware ADS-B
07:13AM 40.6624 -73.7244 131° Southeast 297 342 13,100 -1,920 Descending FlightAware ADS-B
07:14AM 40.6396 -73.7106 155° Southeast 299 344 12,400 -2,340 Descending FlightAware ADS-B
07:14AM 40.6217 -73.7075 173° South 301 346 11,900 -2,280 Descending FlightAware ADS-B
07:14AM 40.5800 -73.7060 178° South 298 343 10,800 -2,160 Descending FlightAware ADS-B
07:15AM 40.5482 -73.7046 178° South 296 341 10,000 -2,160 Descending FlightAware ADS-B
07:15AM 40.5265 -73.7036 178° South 294 338 9,400 -2,340 Descending FlightAware ADS-B
07:15AM 40.5020 -73.7025 178° South 293 337 8,700 -2,160 Descending FlightAware ADS-B
07:15AM 40.4809 -73.7014 178° South 291 335 8,200 -2,100 Descending FlightAware ADS-B
07:16AM 40.4589 -73.7004 178° South 287 330 7,600 -1,740 Descending FlightAware ADS-B
07:16AM 40.4379 -73.6996 178° South 280 322 7,300 -1,080 Descending FlightAware ADS-B
07:16AM 40.4287 -73.6994 179° South 275 316 7,200 -540 Descending FlightAware ADS-B
07:16AM 40.4226 -73.6998 183° South 274 315 7,200 -720 Level FlightAware ADS-B
07:16AM 40.4175 -73.7007 188° South 273 314 7,100 -1,740 Descending FlightAware ADS-B
07:16AM 40.4139 -73.7019 194° South 273 314 7,000 -1,020 Descending FlightAware ADS-B
07:16AM 40.4039 -73.7080 205° Southwest 271 312 6,900 -1,140 Descending FlightAware ADS-B
07:17AM 40.3968 -73.7155 219° Southwest 271 312 6,700 -1,440 Descending FlightAware ADS-B
07:17AM 40.3899 -73.7279 234° Southwest 270 311 6,500 -1,680 Descending FlightAware ADS-B
07:17AM 40.3816 -73.7506 244° Southwest 270 311 6,000 -1,920 Descending FlightAware ADS-B
07:17AM 40.3770 -73.7651 247° West 273 314 5,700 -1,860 Descending FlightAware ADS-B
07:17AM 40.3755 -73.7709 251° West 273 314 5,600 -1,740 Descending FlightAware ADS-B
07:17AM 40.3745 -73.7764 257° West 272 313 5,500 -1,200 Descending FlightAware ADS-B
07:17AM 40.3726 -73.7949 262° West 269 310 5,300 -900 Descending FlightAware ADS-B
07:18AM 40.3712 -73.8200 266° West 263 303 5,100 -1,140 Descending FlightAware ADS-B
07:18AM 40.3699 -73.8458 266° West 260 299 4,700 -1,080 Descending FlightAware ADS-B
07:18AM 40.3688 -73.8725 267° West 254 292 4,500 -900 Descending FlightAware ADS-B
07:18AM 40.3703 -73.8862 278° West 248 285 4,300 -960 Descending FlightAware ADS-B
07:18AM 40.3721 -73.8923 291° West 245 282 4,300 -600 Level FlightAware ADS-B
07:19AM 40.3762 -73.9006 303° West 238 274 4,200 -1,020 Descending FlightAware ADS-B
07:19AM 40.3798 -73.9055 314° West 232 267 4,100 -540 Descending FlightAware ADS-B
07:19AM 40.3858 -73.9105 328° Northwest 226 260 4,100 -600 Level FlightAware ADS-B
07:19AM 40.3896 -73.9125 338° Northwest 223 257 4,000 -1,380 Descending FlightAware ADS-B
07:19AM 40.3946 -73.9142 345° North 221 254 3,900 -600 Descending FlightAware ADS-B
07:19AM 40.4096 -73.9169 352° North 218 251 3,800 -780 Descending FlightAware ADS-B
07:19AM 40.4254 -73.9191 354° North 215 247 3,500 -840 Descending FlightAware ADS-B
07:20AM 40.4312 -73.9185 North 211 243 3,500 -600 Level FlightAware ADS-B
07:20AM 40.4366 -73.9163 17° North 206 237 3,400 -960 Descending FlightAware ADS-B
07:20AM 40.4429 -73.9121 27° Northeast 200 230 3,300 -900 Descending FlightAware ADS-B
07:20AM 40.4585 -73.9003 30° Northeast 188 216 3,000 -840 Descending FlightAware ADS-B
07:21AM 40.4754 -73.8874 30° Northeast 184 212 2,700 -600 Descending FlightAware ADS-B
07:21AM 40.4990 -73.8690 31° Northeast 179 206 2,400 -660 Descending FlightAware
07:22AM 40.5210 -73.8520 30° Northeast 161 185 2,000 -780 Descending FlightAware
07:22AM 40.5270 -73.8470 32° Northeast 159 183 1,900 -900 Descending FlightAware
07:22AM 40.5460 -73.8320 31° Northeast 148 170 1,400 -900 Descending FlightAware
07:23AM 40.5630 -73.8190 30° Northeast 140 161 1,000 -660 Descending FlightAware
07:23AM 40.5760 -73.8090 30° Northeast 139 160 800 -780 Descending FlightAware
07:24AM 40.5940 -73.7950 31° Northeast 142 163 300 -1,020 Descending FlightAware
07:24AM 40.6080 -73.7840 31° Northeast 144 166 -720 Descending FlightAware
07:25AM 40.6260 -73.7700 31° Northeast 147 169  Level FlightAware